createdAt,value
2018-07-12T00:02:14.276Z,101021.42
2018-07-12T00:04:42.014Z,101025.22
2018-07-12T00:07:09.746Z,101030.40
2018-07-12T00:09:37.485Z,101026.25
2018-07-12T00:12:05.205Z,101033.59
2018-07-12T00:14:33.880Z,101029.83
2018-07-12T00:17:01.854Z,101031.79
2018-07-12T00:19:29.581Z,101029.62
2018-07-12T00:21:57.309Z,101031.33
2018-07-12T00:24:25.033Z,101026.59
2018-07-12T00:26:53.394Z,101035.21
2018-07-12T00:29:21.113Z,101030.27
2018-07-12T00:31:48.858Z,101035.66
2018-07-12T00:34:16.578Z,101033.59
2018-07-12T00:36:44.317Z,101034.05
2018-07-12T00:39:12.034Z,101028.72
2018-07-12T00:41:39.749Z,101023.83
2018-07-12T00:44:07.481Z,101027.31
2018-07-12T00:46:35.231Z,101027.31
2018-07-12T00:49:03.212Z,101030.03
2018-07-12T00:51:30.942Z,101030.48
2018-07-12T00:53:58.681Z,101040.61
2018-07-12T00:56:26.397Z,101046.05
2018-07-12T00:58:54.122Z,101040.09
2018-07-12T01:01:21.847Z,101040.19
2018-07-12T01:03:49.597Z,101044.63
2018-07-12T01:06:17.316Z,101042.61
2018-07-12T01:08:45.042Z,101043.34
2018-07-12T01:11:12.768Z,101034.77
2018-07-12T01:13:40.513Z,101047.80
2018-07-12T01:16:08.257Z,101039.92
2018-07-12T01:18:36.014Z,101035.11
2018-07-12T01:21:03.738Z,101028.34
2018-07-12T01:23:31.465Z,101031.91
2018-07-12T01:25:59.201Z,101033.86
2018-07-12T01:28:26.925Z,101035.25
2018-07-12T01:30:54.685Z,101038.00
2018-07-12T01:33:22.409Z,101030.09
2018-07-12T01:35:50.173Z,101031.34
2018-07-12T01:38:17.897Z,101028.18
2018-07-12T01:40:45.618Z,101026.45
2018-07-12T01:43:13.398Z,101028.50
2018-07-12T01:45:41.137Z,101025.11
2018-07-12T01:48:08.867Z,101036.59
2018-07-12T01:50:36.664Z,101032.19
2018-07-12T01:53:04.397Z,101028.61
2018-07-12T01:55:32.189Z,101031.33
2018-07-12T01:57:59.925Z,101030.42
2018-07-12T02:00:27.806Z,101033.52
2018-07-12T02:02:55.516Z,101036.84
2018-07-12T02:05:23.341Z,101026.84
2018-07-12T02:07:51.057Z,101027.28
2018-07-12T02:10:18.804Z,101023.80
2018-07-12T02:12:46.529Z,101024.86
2018-07-12T02:15:14.257Z,101028.22
2018-07-12T02:17:42.027Z,101031.44
2018-07-12T02:20:09.749Z,101031.32
2018-07-12T02:22:37.481Z,101037.39
2018-07-12T02:25:05.213Z,101030.70
2018-07-12T02:27:32.968Z,101024.83
2018-07-12T02:30:00.670Z,101026.14
2018-07-12T02:32:28.841Z,101022.95
2018-07-12T02:34:56.843Z,101022.33
2018-07-12T02:37:24.674Z,101031.52
2018-07-12T02:39:52.395Z,101031.30
2018-07-12T02:42:20.245Z,101022.09
2018-07-12T02:44:47.961Z,101024.91
2018-07-12T02:47:15.697Z,101022.74
2018-07-12T02:49:43.446Z,101030.77
2018-07-12T02:52:11.192Z,101027.55
2018-07-12T02:54:38.910Z,101037.30
2018-07-12T02:57:06.671Z,101029.90
2018-07-12T02:59:34.411Z,101034.08
2018-07-12T03:02:02.446Z,101037.42
2018-07-12T03:04:30.356Z,101031.67
2018-07-12T03:06:58.113Z,101028.81
2018-07-12T03:09:25.849Z,101032.09
2018-07-12T03:11:53.573Z,101033.49
2018-07-12T03:14:21.305Z,101035.90
2018-07-12T03:16:49.038Z,101026.50
2018-07-12T03:19:16.781Z,101028.20
2018-07-12T03:21:44.510Z,101040.67
2018-07-12T03:24:12.242Z,101044.70
2018-07-12T03:26:39.985Z,101045.25
2018-07-12T03:29:07.705Z,101039.75
2018-07-12T03:31:35.446Z,101038.47
2018-07-12T03:34:03.165Z,101047.23
2018-07-12T03:36:30.896Z,101047.05
2018-07-12T03:38:58.617Z,101048.69
2018-07-12T03:41:26.358Z,101047.31
2018-07-12T03:43:54.101Z,101046.86
2018-07-12T03:46:22.751Z,101050.19
2018-07-12T03:48:50.570Z,101052.82
2018-07-12T03:51:18.282Z,101046.23
2018-07-12T03:53:46.021Z,101054.52
2018-07-12T03:56:13.737Z,101059.03
2018-07-12T03:58:41.555Z,101063.58
2018-07-12T04:01:09.273Z,101061.78
2018-07-12T04:03:37.042Z,101059.00
2018-07-12T04:06:04.740Z,101060.67
2018-07-12T04:08:32.471Z,101058.20
2018-07-12T04:11:00.293Z,101055.84
2018-07-12T04:13:27.934Z,101054.91
2018-07-12T04:15:55.657Z,101055.23
2018-07-12T04:18:23.387Z,101055.44
2018-07-12T04:20:51.138Z,101054.52
2018-07-12T04:23:18.845Z,101055.69
2018-07-12T04:26:07.138Z,101052.69
2018-07-12T04:28:34.855Z,101055.73
2018-07-12T04:31:02.580Z,101061.23
2018-07-12T04:33:30.316Z,101060.63
2018-07-12T04:35:58.037Z,101067.19
2018-07-12T04:38:25.761Z,101064.02
2018-07-12T04:40:53.579Z,101072.57
2018-07-12T04:43:21.393Z,101062.44
2018-07-12T04:45:49.126Z,101063.59
2018-07-12T04:48:16.860Z,101066.96
2018-07-12T04:50:44.585Z,101066.86
2018-07-12T04:53:12.326Z,101066.06
2018-07-12T04:55:40.053Z,101067.22
2018-07-12T04:58:07.836Z,101065.07
2018-07-12T05:00:35.497Z,101060.80
2018-07-12T05:03:03.219Z,101066.48
2018-07-12T05:05:30.958Z,101062.94
2018-07-12T05:07:58.685Z,101063.34
2018-07-12T05:10:36.632Z,101064.23
2018-07-12T05:13:04.349Z,101062.47
2018-07-12T05:15:32.089Z,101062.78
2018-07-12T05:17:59.809Z,101065.42
2018-07-12T05:20:27.541Z,101067.80
2018-07-12T05:22:55.306Z,101073.52
2018-07-12T05:25:23.076Z,101075.66
2018-07-12T05:27:50.795Z,101074.52
2018-07-12T05:30:18.529Z,101074.97
2018-07-12T05:32:46.261Z,101078.77
2018-07-12T05:35:13.988Z,101075.66
2018-07-12T05:37:42.845Z,101076.66
2018-07-12T05:40:11.704Z,101073.69
2018-07-12T05:42:40.537Z,101074.34
2018-07-12T05:45:09.409Z,101074.20
2018-07-12T05:47:42.670Z,101081.83
2018-07-12T05:50:11.963Z,101086.71
2018-07-12T05:52:41.074Z,101092.97
2018-07-12T05:55:10.189Z,101091.63
2018-07-12T05:57:39.354Z,101088.30
2018-07-12T06:00:08.510Z,101089.81
2018-07-12T06:02:38.069Z,101100.45
2018-07-12T06:05:07.225Z,101097.55
2018-07-12T06:07:36.330Z,101098.93
2018-07-12T06:10:05.921Z,101101.31
2018-07-12T06:12:35.026Z,101106.41
2018-07-12T06:15:04.321Z,101112.92
2018-07-12T06:17:33.465Z,101112.56
2018-07-12T06:20:03.742Z,101110.45
2018-07-12T06:22:32.866Z,101112.02
2018-07-12T06:25:02.046Z,101118.93
2018-07-12T06:27:31.154Z,101125.48
2018-07-12T06:30:00.315Z,101125.27
2018-07-12T06:32:29.433Z,101128.35
2018-07-12T06:34:58.577Z,101133.92
2018-07-12T06:37:27.721Z,101130.17
2018-07-12T06:39:56.838Z,101140.45
2018-07-12T06:42:27.081Z,101132.45
2018-07-12T06:44:56.125Z,101133.47
2018-07-12T06:47:25.284Z,101133.77
2018-07-12T06:49:54.630Z,101133.44
2018-07-12T06:52:23.746Z,101136.22
2018-07-12T06:54:52.870Z,101140.47
2018-07-12T06:57:24.018Z,101139.67
2018-07-12T06:59:53.131Z,101139.70
2018-07-12T07:02:24.310Z,101139.52
2018-07-12T07:04:53.429Z,101142.42
2018-07-12T07:07:22.561Z,101148.91
2018-07-12T07:09:51.669Z,101145.72
2018-07-12T07:12:20.797Z,101144.55
2018-07-12T07:14:50.325Z,101145.67
2018-07-12T07:17:19.398Z,101146.70
2018-07-12T07:19:48.503Z,101154.86
2018-07-12T07:22:18.650Z,101149.17
2018-07-12T07:24:47.811Z,101156.72
2018-07-12T07:27:16.937Z,101151.45
2018-07-12T07:29:46.073Z,101157.86
2018-07-12T07:32:15.197Z,101155.31
2018-07-12T07:34:44.433Z,101163.27
2018-07-12T07:37:13.542Z,101175.39
2018-07-12T07:39:42.688Z,101175.16
2018-07-12T07:42:11.784Z,101173.84
2018-07-12T07:44:40.961Z,101176.37
2018-07-12T07:47:10.150Z,101175.01
2018-07-12T07:49:39.861Z,101183.80
2018-07-12T07:52:08.993Z,101188.47
2018-07-12T07:54:38.093Z,101177.59
2018-07-12T07:57:07.222Z,101179.80
2018-07-12T07:59:36.324Z,101183.52
2018-07-12T08:02:05.449Z,101188.89
2018-07-12T08:04:34.585Z,101184.45
2018-07-12T08:07:03.766Z,101182.63
2018-07-12T08:09:33.319Z,101183.88
2018-07-12T08:12:02.563Z,101187.77
2018-07-12T08:14:31.692Z,101184.63
2018-07-12T08:17:00.820Z,101186.35
2018-07-12T08:19:29.961Z,101182.88
2018-07-12T08:22:06.500Z,101180.97
2018-07-12T08:24:36.233Z,101181.95
2018-07-12T08:27:05.841Z,101183.20
2018-07-12T08:29:35.162Z,101180.94
2018-07-12T08:32:05.089Z,101180.47
2018-07-12T08:34:34.305Z,101183.56
2018-07-12T08:37:03.500Z,101189.02
2018-07-12T08:39:32.577Z,101189.02
2018-07-12T08:42:01.711Z,101182.38
2018-07-12T08:44:30.848Z,101183.38
2018-07-12T08:46:59.960Z,101187.52
2018-07-12T08:49:29.159Z,101186.73
2018-07-12T08:51:58.312Z,101187.06
2018-07-12T08:54:27.425Z,101187.92
2018-07-12T08:56:56.564Z,101184.77
2018-07-12T08:59:25.748Z,101182.55
2018-07-12T09:01:54.864Z,101179.30
2018-07-12T09:04:23.969Z,101188.64
2018-07-12T09:06:53.075Z,101186.91
2018-07-12T09:09:22.177Z,101183.16
2018-07-12T09:11:51.410Z,101194.34
2018-07-12T09:14:20.497Z,101184.09
2018-07-12T09:16:49.614Z,101184.78
2018-07-12T09:19:18.762Z,101191.95
2018-07-12T09:21:47.931Z,101190.27
2018-07-12T09:24:17.045Z,101199.59
2018-07-12T09:26:46.380Z,101201.28
2018-07-12T09:29:15.531Z,101198.82
2018-07-12T09:31:44.610Z,101202.45
2018-07-12T09:34:13.733Z,101202.34
2018-07-12T09:36:42.873Z,101202.42
2018-07-12T09:39:11.977Z,101198.26
2018-07-12T09:41:41.082Z,101200.19
2018-07-12T09:44:10.206Z,101200.29
2018-07-12T09:46:39.354Z,101204.31
2018-07-12T09:49:08.663Z,101196.73
2018-07-12T09:51:37.642Z,101202.53
2018-07-12T09:54:06.800Z,101206.55
2018-07-12T09:56:47.209Z,101213.28
2018-07-12T09:59:16.285Z,101210.00
2018-07-12T10:01:50.764Z,101210.56
2018-07-12T10:04:19.900Z,101208.34
2018-07-12T10:06:50.921Z,101206.59
2018-07-12T10:09:25.318Z,101197.09
2018-07-12T10:11:59.497Z,101200.48
2018-07-12T10:14:33.933Z,101204.88
2018-07-12T10:17:08.462Z,101198.93
2018-07-12T10:19:37.578Z,101201.62
2018-07-12T10:22:06.849Z,101202.16
2018-07-12T10:24:35.953Z,101206.37
2018-07-12T10:27:05.190Z,101208.46
2018-07-12T10:29:34.342Z,101209.52
2018-07-12T10:32:03.665Z,101207.69
2018-07-12T10:34:32.761Z,101202.92
2018-07-12T10:37:01.906Z,101196.63
2018-07-12T10:39:31.013Z,101195.12
2018-07-12T10:42:00.155Z,101194.16
2018-07-12T10:44:29.295Z,101198.63
2018-07-12T10:46:58.411Z,101208.48
2018-07-12T10:49:27.522Z,101205.22
2018-07-12T10:51:56.665Z,101205.42
2018-07-12T10:54:25.769Z,101206.02
2018-07-12T10:56:54.892Z,101195.78
2018-07-12T10:59:24.066Z,101193.81
2018-07-12T11:01:53.178Z,101190.58
2018-07-12T11:04:23.225Z,101198.68
2018-07-12T11:06:53.090Z,101198.90
2018-07-12T11:09:22.290Z,101201.20
2018-07-12T11:11:51.981Z,101203.20
2018-07-12T11:14:21.125Z,101196.72
2018-07-12T11:16:50.266Z,101196.98
2018-07-12T11:19:19.393Z,101194.98
2018-07-12T11:21:48.546Z,101201.20
2018-07-12T11:24:17.670Z,101205.58
2018-07-12T11:26:46.826Z,101199.09
2018-07-12T11:29:15.986Z,101196.04
2018-07-12T11:31:45.121Z,101195.54
2018-07-12T11:34:14.265Z,101200.83
2018-07-12T11:36:43.417Z,101199.49
2018-07-12T11:39:12.533Z,101199.50
2018-07-12T11:41:41.690Z,101202.41
2018-07-12T11:44:10.782Z,101200.41
2018-07-12T11:46:39.941Z,101202.61
2018-07-12T11:49:09.055Z,101190.73
2018-07-12T11:51:38.153Z,101200.44
2018-07-12T11:54:07.259Z,101197.23
2018-07-12T11:56:36.389Z,101197.27
2018-07-12T11:59:05.663Z,101201.64
2018-07-12T12:01:34.815Z,101199.69
2018-07-12T12:04:03.927Z,101193.33
2018-07-12T12:06:33.030Z,101192.29
2018-07-12T12:09:02.161Z,101188.04
2018-07-12T12:11:31.281Z,101195.82
2018-07-12T12:14:00.413Z,101188.30
2018-07-12T12:16:29.554Z,101189.22
2018-07-12T12:18:58.665Z,101192.47
2018-07-12T12:21:27.773Z,101191.09
2018-07-12T12:23:56.901Z,101185.80
2018-07-12T12:26:26.048Z,101188.52
2018-07-12T12:28:55.182Z,101183.41
2018-07-12T12:31:24.299Z,101183.48
2018-07-12T12:33:53.418Z,101176.08
2018-07-12T12:36:22.549Z,101183.27
2018-07-12T12:38:52.144Z,101185.78
2018-07-12T12:41:21.317Z,101174.47
2018-07-12T12:43:50.429Z,101175.95
2018-07-12T12:46:19.586Z,101181.71
2018-07-12T12:48:48.689Z,101172.98
2018-07-12T12:51:25.165Z,101177.28
2018-07-12T12:53:54.261Z,101174.41
2018-07-12T12:56:23.390Z,101167.77
2018-07-12T12:58:52.505Z,101169.36
2018-07-12T13:01:21.649Z,101162.52
2018-07-12T13:03:50.737Z,101165.42
2018-07-12T13:06:19.929Z,101159.09
2018-07-12T13:08:49.057Z,101154.28
2018-07-12T13:11:18.191Z,101165.73
2018-07-12T13:13:47.693Z,101163.20
2018-07-12T13:16:16.934Z,101156.98
2018-07-12T13:18:46.079Z,101152.31
2018-07-12T13:21:15.206Z,101153.19
2018-07-12T13:23:44.325Z,101147.37
2018-07-12T13:26:14.666Z,101154.52
2018-07-12T13:28:43.773Z,101159.60
2018-07-12T13:31:12.960Z,101155.98
2018-07-12T13:33:42.109Z,101153.88
2018-07-12T13:36:11.246Z,101145.39
2018-07-12T13:38:40.337Z,101145.09
2018-07-12T13:41:09.465Z,101143.78
2018-07-12T13:43:38.604Z,101139.80
2018-07-12T13:46:07.869Z,101145.50
2018-07-12T13:48:37.137Z,101144.02
2018-07-12T13:51:06.366Z,101146.85
2018-07-12T13:53:35.805Z,101141.59
2018-07-12T13:56:04.961Z,101135.05
2018-07-12T13:58:34.098Z,101139.53
2018-07-12T14:01:03.255Z,101134.09
2018-07-12T14:03:32.370Z,101130.73
2018-07-12T14:06:01.506Z,101134.41
2018-07-12T14:08:30.613Z,101135.43
2018-07-12T14:10:59.747Z,101131.18
2018-07-12T14:13:28.893Z,101137.66
2018-07-12T14:15:58.070Z,101128.30
2018-07-12T14:18:27.201Z,101125.06
2018-07-12T14:20:56.325Z,101120.91
2018-07-12T14:23:25.457Z,101123.20
2018-07-12T14:25:54.629Z,101116.73
2018-07-12T14:28:23.782Z,101109.27
2018-07-12T14:30:52.909Z,101112.55
2018-07-12T14:33:22.025Z,101116.80
2018-07-12T14:35:51.146Z,101112.55
2018-07-12T14:38:20.254Z,101106.42
2018-07-12T14:40:50.457Z,101115.42
2018-07-12T14:43:19.568Z,101106.89
2018-07-12T14:45:48.713Z,101105.40
2018-07-12T14:48:17.822Z,101105.81
2018-07-12T14:50:49.089Z,101102.43
2018-07-12T14:53:18.177Z,101101.27
2018-07-12T14:55:47.380Z,101097.76
2018-07-12T14:58:16.632Z,101099.10
2018-07-12T15:00:45.833Z,101097.78
2018-07-12T15:03:14.921Z,101101.39
2018-07-12T15:05:51.405Z,101091.29
2018-07-12T15:08:20.535Z,101100.62
2018-07-12T15:10:49.688Z,101100.22
2018-07-12T15:13:18.811Z,101099.46
2018-07-12T15:15:47.910Z,101099.84
2018-07-12T15:18:17.026Z,101102.77
2018-07-12T15:20:46.137Z,101103.91
2018-07-12T15:23:15.278Z,101096.56
2018-07-12T15:25:44.446Z,101097.93
2018-07-12T15:28:13.573Z,101095.41
2018-07-12T15:30:42.678Z,101100.63
2018-07-12T15:33:11.808Z,101096.17
2018-07-12T15:35:40.945Z,101099.52
2018-07-12T15:38:10.037Z,101094.50
2018-07-12T15:40:39.170Z,101096.98
2018-07-12T15:43:08.402Z,101092.55
2018-07-12T15:45:37.519Z,101090.09
2018-07-12T15:48:06.641Z,101088.11
2018-07-12T15:50:35.774Z,101086.70
2018-07-12T15:53:06.017Z,101089.33
2018-07-12T15:55:35.119Z,101083.87
2018-07-12T15:58:04.257Z,101084.55
2018-07-12T16:00:33.401Z,101085.70
2018-07-12T16:03:02.537Z,101086.98
2018-07-12T16:05:32.098Z,101080.77
2018-07-12T16:08:01.221Z,101080.10
2018-07-12T16:10:30.338Z,101080.42
2018-07-12T16:12:59.465Z,101073.12
2018-07-12T16:15:28.637Z,101075.66
2018-07-12T16:17:57.789Z,101081.03
2018-07-12T16:20:26.925Z,101075.36
2018-07-12T16:22:56.047Z,101066.14
2018-07-12T16:25:25.194Z,101075.12
2018-07-12T16:27:54.325Z,101069.25
2018-07-12T16:30:23.466Z,101061.73
2018-07-12T16:32:52.616Z,101066.86
2018-07-12T16:35:26.391Z,101066.71
2018-07-12T16:37:55.833Z,101066.84
2018-07-12T16:40:24.963Z,101068.80
2018-07-12T16:42:54.120Z,101068.83
2018-07-12T16:45:23.223Z,101061.72
2018-07-12T16:47:52.363Z,101063.97
2018-07-12T16:50:21.494Z,101057.42
2018-07-12T16:52:50.625Z,101069.84
2018-07-12T16:55:19.726Z,101067.11
2018-07-12T16:57:48.841Z,101066.34
2018-07-12T17:00:19.957Z,101061.26
2018-07-12T17:02:49.921Z,101069.85
2018-07-12T17:05:19.063Z,101071.03
2018-07-12T17:07:48.325Z,101072.26
2018-07-12T17:10:17.365Z,101075.35
2018-07-12T17:12:46.546Z,101081.14
2018-07-12T17:15:15.646Z,101078.95
2018-07-12T17:17:44.794Z,101078.09
2018-07-12T17:20:13.962Z,101079.20
2018-07-12T17:22:43.063Z,101081.17
2018-07-12T17:25:12.169Z,101080.58
2018-07-12T17:27:41.325Z,101078.47
2018-07-12T17:30:10.482Z,101076.56
2018-07-12T17:32:39.708Z,101082.39
2018-07-12T17:35:08.875Z,101083.78
2018-07-12T17:37:37.989Z,101074.33
2018-07-12T17:40:07.098Z,101079.22
2018-07-12T17:42:36.217Z,101081.53
2018-07-12T17:45:05.328Z,101084.24
2018-07-12T17:47:34.491Z,101081.83
2018-07-12T17:50:03.589Z,101075.36
2018-07-12T17:52:33.089Z,101076.46
2018-07-12T17:55:02.213Z,101080.51
2018-07-12T17:57:31.325Z,101078.71
2018-07-12T18:00:00.441Z,101082.95
2018-07-12T18:02:29.602Z,101077.92
2018-07-12T18:04:58.724Z,101081.37
2018-07-12T18:07:27.829Z,101085.91
2018-07-12T18:09:56.954Z,101082.40
2018-07-12T18:12:26.064Z,101083.90
2018-07-12T18:14:55.178Z,101085.00
2018-07-12T18:17:24.277Z,101080.20
2018-07-12T18:19:53.389Z,101081.70
2018-07-12T18:22:22.542Z,101081.73
2018-07-12T18:24:51.657Z,101088.68
2018-07-12T18:27:20.768Z,101087.52
2018-07-12T18:29:50.935Z,101083.00
2018-07-12T18:32:20.049Z,101082.77
2018-07-12T18:34:49.185Z,101078.78
2018-07-12T18:37:18.321Z,101080.91
2018-07-12T18:39:47.433Z,101079.59
2018-07-12T18:42:16.557Z,101088.63
2018-07-12T18:44:45.727Z,101089.09
2018-07-12T18:47:14.861Z,101087.92
2018-07-12T18:49:44.035Z,101092.38
2018-07-12T18:52:13.165Z,101090.35
2018-07-12T18:54:42.305Z,101091.30
2018-07-12T18:57:11.588Z,101091.22
2018-07-12T18:59:40.762Z,101093.88
2018-07-12T19:02:09.925Z,101095.76
2018-07-12T19:04:39.145Z,101098.31
2018-07-12T19:07:08.266Z,101094.48
2018-07-12T19:09:37.406Z,101099.86
2018-07-12T19:12:06.544Z,101105.61
2018-07-12T19:14:35.654Z,101110.48
2018-07-12T19:17:04.806Z,101109.98
2018-07-12T19:19:33.920Z,101110.17
2018-07-12T19:22:03.197Z,101110.39
2018-07-12T19:24:32.329Z,101115.09
2018-07-12T19:27:01.438Z,101115.63
2018-07-12T19:29:30.579Z,101110.32
2018-07-12T19:32:00.012Z,101117.56
2018-07-12T19:34:29.174Z,101122.25
2018-07-12T19:36:58.302Z,101114.25
2018-07-12T19:39:27.473Z,101125.94
2018-07-12T19:41:56.630Z,101125.62
2018-07-12T19:44:25.733Z,101125.44
2018-07-12T19:46:54.934Z,101124.77
2018-07-12T19:49:24.133Z,101128.14
2018-07-12T19:51:54.385Z,101129.77
2018-07-12T19:54:25.165Z,101134.53
2018-07-12T19:56:55.041Z,101138.96
2018-07-12T19:59:24.149Z,101135.53
2018-07-12T20:01:53.249Z,101140.83
2018-07-12T20:04:22.408Z,101142.42
2018-07-12T20:06:51.680Z,101145.98
2018-07-12T20:09:20.857Z,101152.52
2018-07-12T20:11:52.077Z,101155.39
2018-07-12T20:14:21.197Z,101157.50
2018-07-12T20:16:50.316Z,101160.55
2018-07-12T20:19:19.582Z,101162.13
2018-07-12T20:21:48.706Z,101172.39
2018-07-12T20:24:17.833Z,101161.36
2018-07-12T20:26:47.018Z,101160.81
2018-07-12T20:29:16.538Z,101163.69
2018-07-12T20:31:46.782Z,101173.55
2018-07-12T20:34:16.010Z,101164.69
2018-07-12T20:36:45.129Z,101175.59
2018-07-12T20:39:14.237Z,101180.83
2018-07-12T20:41:48.729Z,101187.77
2018-07-12T20:44:17.847Z,101182.80
2018-07-12T20:46:50.673Z,101188.92
2018-07-12T20:49:19.813Z,101195.92
2018-07-12T20:51:50.005Z,101201.33
2018-07-12T20:54:19.290Z,101207.87
2018-07-12T20:56:48.418Z,101210.95
2018-07-12T20:59:17.568Z,101216.45
2018-07-12T21:01:46.701Z,101218.02
2018-07-12T21:04:15.856Z,101223.61
2018-07-12T21:06:44.985Z,101220.04
2018-07-12T21:09:14.089Z,101214.55
2018-07-12T21:11:43.286Z,101216.78
2018-07-12T21:14:12.446Z,101221.91
2018-07-12T21:16:41.569Z,101217.27
2018-07-12T21:19:10.717Z,101217.53
2018-07-12T21:21:39.862Z,101219.17
2018-07-12T21:24:08.982Z,101224.05
2018-07-12T21:26:38.319Z,101216.95
2018-07-12T21:29:07.450Z,101225.54
2018-07-12T21:31:36.576Z,101230.08
2018-07-12T21:34:05.716Z,101231.50
2018-07-12T21:36:34.861Z,101233.44
2018-07-12T21:39:05.001Z,101236.36
2018-07-12T21:41:34.210Z,101230.95
2018-07-12T21:44:03.361Z,101236.62
2018-07-12T21:46:33.576Z,101241.11
2018-07-12T21:49:03.003Z,101239.67
2018-07-12T21:51:32.185Z,101240.14
2018-07-12T21:54:01.290Z,101237.03
2018-07-12T21:56:30.443Z,101242.58
2018-07-12T21:58:59.565Z,101236.88
2018-07-12T22:01:28.702Z,101241.65
2018-07-12T22:03:57.847Z,101237.97
2018-07-12T22:06:38.201Z,101229.98
2018-07-12T22:09:08.081Z,101237.47
2018-07-12T22:11:37.234Z,101232.56
2018-07-12T22:14:06.348Z,101235.69
2018-07-12T22:16:35.510Z,101244.38
2018-07-12T22:19:04.757Z,101241.97
2018-07-12T22:21:33.932Z,101247.09
2018-07-12T22:24:03.126Z,101246.49
2018-07-12T22:26:32.272Z,101245.97
2018-07-12T22:29:01.367Z,101249.36
2018-07-12T22:31:30.544Z,101257.09
2018-07-12T22:33:59.706Z,101248.80
2018-07-12T22:36:29.293Z,101251.36
2018-07-12T22:38:58.401Z,101245.88
2018-07-12T22:41:27.533Z,101250.27
2018-07-12T22:43:56.648Z,101245.36
2018-07-12T22:46:25.769Z,101243.98
2018-07-12T22:48:55.021Z,101254.05
2018-07-12T22:51:24.206Z,101251.41
2018-07-12T22:53:53.325Z,101260.98
2018-07-12T22:56:22.656Z,101254.39
2018-07-12T22:58:51.918Z,101256.64
2018-07-12T23:01:21.034Z,101262.14
2018-07-12T23:03:50.158Z,101256.12
2018-07-12T23:06:19.336Z,101263.36
2018-07-12T23:08:48.435Z,101249.98
2018-07-12T23:11:17.680Z,101260.17
2018-07-12T23:13:46.793Z,101260.52
2018-07-12T23:16:15.959Z,101261.56
2018-07-12T23:18:45.068Z,101258.47
2018-07-12T23:21:14.205Z,101265.38
2018-07-12T23:23:43.329Z,101261.11
2018-07-12T23:26:13.227Z,101263.16
2018-07-12T23:28:42.333Z,101263.50
2018-07-12T23:31:11.461Z,101260.41
2018-07-12T23:33:40.685Z,101270.02
2018-07-12T23:36:09.803Z,101266.05
2018-07-12T23:38:38.897Z,101274.61
2018-07-12T23:41:08.017Z,101274.59
2018-07-12T23:43:37.164Z,101268.25
2018-07-12T23:46:06.401Z,101272.39
2018-07-12T23:48:35.694Z,101274.71
2018-07-12T23:51:04.969Z,101276.59
2018-07-12T23:53:34.098Z,101278.17
2018-07-12T23:56:03.330Z,101285.41
2018-07-12T23:58:33.505Z,101281.36
